sensor_id;sensor_type;location;lat;lon;timestamp;temperature;humidity
11836;DHT22;5977;51.972;7.640;2022-10-30T00:01:21;21.00;89.50
11836;DHT22;5977;51.972;7.640;2022-10-30T00:03:49;21.00;88.50
11836;DHT22;5977;51.972;7.640;2022-10-30T00:06:16;20.90;90.10
11836;DHT22;5977;51.972;7.640;2022-10-30T00:08:44;20.90;90.00
11836;DHT22;5977;51.972;7.640;2022-10-30T00:11:12;20.80;90.00
11836;DHT22;5977;51.972;7.640;2022-10-30T00:13:41;20.90;90.40
11836;DHT22;5977;51.972;7.640;2022-10-30T00:16:11;20.90;90.70
11836;DHT22;5977;51.972;7.640;2022-10-30T00:18:39;20.80;90.90
11836;DHT22;5977;51.972;7.640;2022-10-30T00:21:09;20.70;91.00
11836;DHT22;5977;51.972;7.640;2022-10-30T00:23:37;20.70;91.00
11836;DHT22;5977;51.972;7.640;2022-10-30T00:26:06;20.70;91.20
11836;DHT22;5977;51.972;7.640;2022-10-30T00:28:34;20.60;91.20
11836;DHT22;5977;51.972;7.640;2022-10-30T00:31:03;20.70;91.30
11836;DHT22;5977;51.972;7.640;2022-10-30T00:33:32;20.60;91.40
11836;DHT22;5977;51.972;7.640;2022-10-30T00:36:00;20.50;91.70
11836;DHT22;5977;51.972;7.640;2022-10-30T00:38:28;20.50;91.60
11836;DHT22;5977;51.972;7.640;2022-10-30T00:40:56;20.50;91.70
11836;DHT22;5977;51.972;7.640;2022-10-30T00:43:27;20.50;92.00
11836;DHT22;5977;51.972;7.640;2022-10-30T00:45:57;20.50;92.20
11836;DHT22;5977;51.972;7.640;2022-10-30T00:48:27;20.50;92.20
11836;DHT22;5977;51.972;7.640;2022-10-30T00:50:59;20.40;92.60
11836;DHT22;5977;51.972;7.640;2022-10-30T00:53:28;20.40;92.70
11836;DHT22;5977;51.972;7.640;2022-10-30T00:56:00;20.50;92.80
11836;DHT22;5977;51.972;7.640;2022-10-30T00:58:32;20.50;93.40
11836;DHT22;5977;51.972;7.640;2022-10-30T01:01:03;20.50;93.90
11836;DHT22;5977;51.972;7.640;2022-10-30T01:03:33;20.50;93.80
11836;DHT22;5977;51.972;7.640;2022-10-30T01:06:05;20.40;93.60
11836;DHT22;5977;51.972;7.640;2022-10-30T01:08:34;20.40;93.80
11836;DHT22;5977;51.972;7.640;2022-10-30T01:11:04;20.40;93.60
11836;DHT22;5977;51.972;7.640;2022-10-30T01:13:33;20.40;93.90
11836;DHT22;5977;51.972;7.640;2022-10-30T01:16:16;20.30;93.90
11836;DHT22;5977;51.972;7.640;2022-10-30T01:18:52;20.30;94.20
11836;DHT22;5977;51.972;7.640;2022-10-30T01:21:33;20.30;94.50
11836;DHT22;5977;51.972;7.640;2022-10-30T01:24:18;20.30;93.60
11836;DHT22;5977;51.972;7.640;2022-10-30T01:26:54;20.20;93.40
11836;DHT22;5977;51.972;7.640;2022-10-30T01:29:37;20.30;93.10
11836;DHT22;5977;51.972;7.640;2022-10-30T01:32:21;20.20;93.90
11836;DHT22;5977;51.972;7.640;2022-10-30T01:34:58;20.20;93.50
11836;DHT22;5977;51.972;7.640;2022-10-30T01:37:32;20.20;93.20
11836;DHT22;5977;51.972;7.640;2022-10-30T01:40:04;20.10;93.50
11836;DHT22;5977;51.972;7.640;2022-10-30T01:42:49;20.10;93.50
11836;DHT22;5977;51.972;7.640;2022-10-30T01:46:01;20.10;93.50
11836;DHT22;5977;51.972;7.640;2022-10-30T01:48:52;20.20;93.20
11836;DHT22;5977;51.972;7.640;2022-10-30T01:51:30;20.20;93.00
11836;DHT22;5977;51.972;7.640;2022-10-30T01:54:10;20.20;93.10
11836;DHT22;5977;51.972;7.640;2022-10-30T01:56:49;20.20;93.00
11836;DHT22;5977;51.972;7.640;2022-10-30T01:59:23;20.20;93.00
11836;DHT22;5977;51.972;7.640;2022-10-30T02:01:54;20.20;93.00
11836;DHT22;5977;51.972;7.640;2022-10-30T02:04:23;20.20;92.50
11836;DHT22;5977;51.972;7.640;2022-10-30T02:06:52;20.20;92.70
11836;DHT22;5977;51.972;7.640;2022-10-30T02:09:22;20.20;92.70
11836;DHT22;5977;51.972;7.640;2022-10-30T02:11:51;20.10;92.80
11836;DHT22;5977;51.972;7.640;2022-10-30T02:14:23;20.20;92.80
11836;DHT22;5977;51.972;7.640;2022-10-30T02:16:53;20.20;93.10
11836;DHT22;5977;51.972;7.640;2022-10-30T02:19:23;20.20;93.20
11836;DHT22;5977;51.972;7.640;2022-10-30T02:21:54;20.10;93.00
11836;DHT22;5977;51.972;7.640;2022-10-30T02:24:22;20.00;93.00
11836;DHT22;5977;51.972;7.640;2022-10-30T02:26:50;20.10;93.30
11836;DHT22;5977;51.972;7.640;2022-10-30T02:29:17;20.00;92.90
11836;DHT22;5977;51.972;7.640;2022-10-30T02:31:47;20.10;93.00
11836;DHT22;5977;51.972;7.640;2022-10-30T02:34:15;20.10;93.10
11836;DHT22;5977;51.972;7.640;2022-10-30T02:36:43;20.10;93.50
11836;DHT22;5977;51.972;7.640;2022-10-30T02:39:12;20.10;93.00
11836;DHT22;5977;51.972;7.640;2022-10-30T02:41:41;20.10;92.70
11836;DHT22;5977;51.972;7.640;2022-10-30T02:44:10;20.10;93.00
11836;DHT22;5977;51.972;7.640;2022-10-30T02:46:38;20.00;93.00
11836;DHT22;5977;51.972;7.640;2022-10-30T02:49:06;20.00;93.10
11836;DHT22;5977;51.972;7.640;2022-10-30T02:51:34;20.00;93.10
11836;DHT22;5977;51.972;7.640;2022-10-30T02:54:02;20.10;93.10
11836;DHT22;5977;51.972;7.640;2022-10-30T02:56:32;20.00;93.20
11836;DHT22;5977;51.972;7.640;2022-10-30T02:59:00;20.00;93.10
11836;DHT22;5977;51.972;7.640;2022-10-30T03:01:28;20.00;93.40
11836;DHT22;5977;51.972;7.640;2022-10-30T03:03:57;20.00;93.00
11836;DHT22;5977;51.972;7.640;2022-10-30T03:06:25;20.00;93.00
11836;DHT22;5977;51.972;7.640;2022-10-30T03:08:53;20.00;93.30
11836;DHT22;5977;51.972;7.640;2022-10-30T03:11:21;20.00;93.00
11836;DHT22;5977;51.972;7.640;2022-10-30T03:13:50;20.00;93.20
11836;DHT22;5977;51.972;7.640;2022-10-30T03:16:22;20.00;93.40
11836;DHT22;5977;51.972;7.640;2022-10-30T03:18:51;20.00;93.10
11836;DHT22;5977;51.972;7.640;2022-10-30T03:21:20;19.90;93.10
11836;DHT22;5977;51.972;7.640;2022-10-30T03:23:49;19.90;93.10
11836;DHT22;5977;51.972;7.640;2022-10-30T03:26:17;19.90;93.30
11836;DHT22;5977;51.972;7.640;2022-10-30T03:29:02;20.00;93.00
11836;DHT22;5977;51.972;7.640;2022-10-30T03:31:32;19.90;93.20
11836;DHT22;5977;51.972;7.640;2022-10-30T03:34:29;19.90;93.10
11836;DHT22;5977;51.972;7.640;2022-10-30T03:37:02;19.90;92.90
11836;DHT22;5977;51.972;7.640;2022-10-30T03:39:30;19.90;93.20
11836;DHT22;5977;51.972;7.640;2022-10-30T03:41:58;19.90;93.00
11836;DHT22;5977;51.972;7.640;2022-10-30T03:44:27;19.80;93.00
11836;DHT22;5977;51.972;7.640;2022-10-30T03:46:55;19.80;93.10
11836;DHT22;5977;51.972;7.640;2022-10-30T03:49:31;19.80;93.20
11836;DHT22;5977;51.972;7.640;2022-10-30T03:52:01;19.80;93.10
11836;DHT22;5977;51.972;7.640;2022-10-30T03:54:30;19.80;93.20
11836;DHT22;5977;51.972;7.640;2022-10-30T03:56:57;19.80;93.40
11836;DHT22;5977;51.972;7.640;2022-10-30T03:59:31;19.80;93.20
11836;DHT22;5977;51.972;7.640;2022-10-30T04:02:18;19.80;93.80
11836;DHT22;5977;51.972;7.640;2022-10-30T04:04:51;19.90;93.50
11836;DHT22;5977;51.972;7.640;2022-10-30T04:07:19;19.90;93.30
11836;DHT22;5977;51.972;7.640;2022-10-30T04:09:47;19.80;93.30
11836;DHT22;5977;51.972;7.640;2022-10-30T04:12:15;19.80;93.40
11836;DHT22;5977;51.972;7.640;2022-10-30T04:14:44;19.90;93.30
11836;DHT22;5977;51.972;7.640;2022-10-30T04:17:12;19.80;93.30
11836;DHT22;5977;51.972;7.640;2022-10-30T04:19:39;19.80;93.30
11836;DHT22;5977;51.972;7.640;2022-10-30T04:22:08;19.80;93.10
11836;DHT22;5977;51.972;7.640;2022-10-30T04:24:37;19.80;93.20
11836;DHT22;5977;51.972;7.640;2022-10-30T04:27:05;19.60;93.40
11836;DHT22;5977;51.972;7.640;2022-10-30T04:29:33;19.70;93.80
11836;DHT22;5977;51.972;7.640;2022-10-30T04:32:05;19.80;93.80
11836;DHT22;5977;51.972;7.640;2022-10-30T04:34:33;19.80;93.50
11836;DHT22;5977;51.972;7.640;2022-10-30T04:37:02;19.80;93.60
11836;DHT22;5977;51.972;7.640;2022-10-30T04:39:30;19.70;93.40
11836;DHT22;5977;51.972;7.640;2022-10-30T04:42:08;19.70;93.30
11836;DHT22;5977;51.972;7.640;2022-10-30T04:44:35;19.70;93.90
11836;DHT22;5977;51.972;7.640;2022-10-30T04:47:05;19.70;93.40
11836;DHT22;5977;51.972;7.640;2022-10-30T04:49:32;19.80;93.60
11836;DHT22;5977;51.972;7.640;2022-10-30T04:52:00;19.70;93.70
11836;DHT22;5977;51.972;7.640;2022-10-30T04:54:28;19.70;93.90
11836;DHT22;5977;51.972;7.640;2022-10-30T04:56:56;19.70;94.10
11836;DHT22;5977;51.972;7.640;2022-10-30T04:59:24;19.60;93.80
11836;DHT22;5977;51.972;7.640;2022-10-30T05:01:53;19.60;93.80
11836;DHT22;5977;51.972;7.640;2022-10-30T05:04:22;19.60;93.60
11836;DHT22;5977;51.972;7.640;2022-10-30T05:06:51;19.60;93.60
11836;DHT22;5977;51.972;7.640;2022-10-30T05:09:19;19.60;93.30
11836;DHT22;5977;51.972;7.640;2022-10-30T05:11:47;19.60;92.90
11836;DHT22;5977;51.972;7.640;2022-10-30T05:14:14;19.60;93.00
11836;DHT22;5977;51.972;7.640;2022-10-30T05:16:43;19.60;93.00
11836;DHT22;5977;51.972;7.640;2022-10-30T05:19:11;19.70;93.00
11836;DHT22;5977;51.972;7.640;2022-10-30T05:21:46;19.70;93.40
11836;DHT22;5977;51.972;7.640;2022-10-30T05:24:13;19.70;92.90
11836;DHT22;5977;51.972;7.640;2022-10-30T05:26:44;19.70;92.80
11836;DHT22;5977;51.972;7.640;2022-10-30T05:29:12;19.70;92.50
11836;DHT22;5977;51.972;7.640;2022-10-30T05:31:40;19.70;92.40
11836;DHT22;5977;51.972;7.640;2022-10-30T05:34:29;19.70;92.20
11836;DHT22;5977;51.972;7.640;2022-10-30T05:36:58;19.70;92.30
11836;DHT22;5977;51.972;7.640;2022-10-30T05:39:26;19.70;92.10
11836;DHT22;5977;51.972;7.640;2022-10-30T05:41:55;19.60;92.20
11836;DHT22;5977;51.972;7.640;2022-10-30T05:44:34;19.50;92.30
11836;DHT22;5977;51.972;7.640;2022-10-30T05:47:21;19.60;92.50
11836;DHT22;5977;51.972;7.640;2022-10-30T05:49:52;19.60;92.50
11836;DHT22;5977;51.972;7.640;2022-10-30T05:52:25;19.60;92.20
11836;DHT22;5977;51.972;7.640;2022-10-30T05:54:53;19.60;92.50
11836;DHT22;5977;51.972;7.640;2022-10-30T05:57:44;19.60;92.40
11836;DHT22;5977;51.972;7.640;2022-10-30T06:00:13;19.60;92.40
11836;DHT22;5977;51.972;7.640;2022-10-30T06:02:41;19.50;92.60
11836;DHT22;5977;51.972;7.640;2022-10-30T06:05:11;19.60;92.40
11836;DHT22;5977;51.972;7.640;2022-10-30T06:07:40;19.60;92.50
11836;DHT22;5977;51.972;7.640;2022-10-30T06:10:08;19.60;92.30
11836;DHT22;5977;51.972;7.640;2022-10-30T06:12:41;19.60;92.20
11836;DHT22;5977;51.972;7.640;2022-10-30T06:15:34;19.50;92.60
11836;DHT22;5977;51.972;7.640;2022-10-30T06:18:02;19.60;92.50
11836;DHT22;5977;51.972;7.640;2022-10-30T06:20:39;19.60;92.50
11836;DHT22;5977;51.972;7.640;2022-10-30T06:23:27;19.40;91.90
11836;DHT22;5977;51.972;7.640;2022-10-30T06:26:14;19.40;92.40
11836;DHT22;5977;51.972;7.640;2022-10-30T06:28:45;19.30;92.10
11836;DHT22;5977;51.972;7.640;2022-10-30T06:31:13;19.40;92.50
11836;DHT22;5977;51.972;7.640;2022-10-30T06:33:41;19.50;92.70
11836;DHT22;5977;51.972;7.640;2022-10-30T06:36:11;19.50;92.20
11836;DHT22;5977;51.972;7.640;2022-10-30T06:38:41;19.50;92.40
11836;DHT22;5977;51.972;7.640;2022-10-30T06:41:11;19.50;91.90
11836;DHT22;5977;51.972;7.640;2022-10-30T06:43:57;19.50;92.40
11836;DHT22;5977;51.972;7.640;2022-10-30T06:46:25;19.50;91.90
11836;DHT22;5977;51.972;7.640;2022-10-30T06:48:59;19.50;91.80
11836;DHT22;5977;51.972;7.640;2022-10-30T06:51:28;19.40;92.10
11836;DHT22;5977;51.972;7.640;2022-10-30T06:54:03;19.50;93.30
11836;DHT22;5977;51.972;7.640;2022-10-30T06:56:37;19.60;92.90
11836;DHT22;5977;51.972;7.640;2022-10-30T06:59:37;19.50;92.70
11836;DHT22;5977;51.972;7.640;2022-10-30T07:02:19;19.60;92.30
11836;DHT22;5977;51.972;7.640;2022-10-30T07:04:52;19.50;93.00
11836;DHT22;5977;51.972;7.640;2022-10-30T07:07:20;19.40;93.10
11836;DHT22;5977;51.972;7.640;2022-10-30T07:09:50;19.30;92.90
11836;DHT22;5977;51.972;7.640;2022-10-30T07:12:23;19.40;92.60
11836;DHT22;5977;51.972;7.640;2022-10-30T07:15:14;19.30;92.30
11836;DHT22;5977;51.972;7.640;2022-10-30T07:18:01;19.30;92.00
11836;DHT22;5977;51.972;7.640;2022-10-30T07:20:34;19.20;92.30
11836;DHT22;5977;51.972;7.640;2022-10-30T07:23:02;19.30;91.90
11836;DHT22;5977;51.972;7.640;2022-10-30T07:25:32;19.30;91.70
11836;DHT22;5977;51.972;7.640;2022-10-30T07:28:09;19.30;91.70
11836;DHT22;5977;51.972;7.640;2022-10-30T07:30:52;19.20;91.50
11836;DHT22;5977;51.972;7.640;2022-10-30T07:33:45;19.30;91.50
11836;DHT22;5977;51.972;7.640;2022-10-30T07:36:38;19.30;91.20
11836;DHT22;5977;51.972;7.640;2022-10-30T07:39:22;19.30;90.90
11836;DHT22;5977;51.972;7.640;2022-10-30T07:42:17;19.40;90.80
11836;DHT22;5977;51.972;7.640;2022-10-30T07:45:05;19.40;90.40
11836;DHT22;5977;51.972;7.640;2022-10-30T07:47:39;19.40;90.20
11836;DHT22;5977;51.972;7.640;2022-10-30T07:50:13;19.50;90.30
11836;DHT22;5977;51.972;7.640;2022-10-30T07:52:42;19.50;90.00
11836;DHT22;5977;51.972;7.640;2022-10-30T07:55:10;19.70;89.40
11836;DHT22;5977;51.972;7.640;2022-10-30T07:57:59;20.00;88.10
11836;DHT22;5977;51.972;7.640;2022-10-30T08:00:46;20.20;86.80
11836;DHT22;5977;51.972;7.640;2022-10-30T08:03:25;20.40;85.30
11836;DHT22;5977;51.972;7.640;2022-10-30T08:06:03;20.60;84.70
11836;DHT22;5977;51.972;7.640;2022-10-30T08:08:34;20.70;84.40
11836;DHT22;5977;51.972;7.640;2022-10-30T08:11:27;20.70;83.50
11836;DHT22;5977;51.972;7.640;2022-10-30T08:13:58;20.80;83.30
11836;DHT22;5977;51.972;7.640;2022-10-30T08:16:27;20.90;83.20
11836;DHT22;5977;51.972;7.640;2022-10-30T08:18:56;20.90;82.30
11836;DHT22;5977;51.972;7.640;2022-10-30T08:21:24;21.10;81.80
11836;DHT22;5977;51.972;7.640;2022-10-30T08:24:03;21.20;80.80
11836;DHT22;5977;51.972;7.640;2022-10-30T08:26:33;21.40;79.90
11836;DHT22;5977;51.972;7.640;2022-10-30T08:29:02;21.50;79.10
11836;DHT22;5977;51.972;7.640;2022-10-30T08:31:30;21.70;78.40
11836;DHT22;5977;51.972;7.640;2022-10-30T08:34:01;21.80;77.50
11836;DHT22;5977;51.972;7.640;2022-10-30T08:36:47;21.70;76.70
11836;DHT22;5977;51.972;7.640;2022-10-30T08:39:16;21.60;76.60
11836;DHT22;5977;51.972;7.640;2022-10-30T08:42:04;21.70;76.70
11836;DHT22;5977;51.972;7.640;2022-10-30T08:44:39;21.70;75.70
11836;DHT22;5977;51.972;7.640;2022-10-30T08:47:19;21.70;75.90
11836;DHT22;5977;51.972;7.640;2022-10-30T08:49:48;21.80;75.10
11836;DHT22;5977;51.972;7.640;2022-10-30T08:52:20;21.90;75.70
11836;DHT22;5977;51.972;7.640;2022-10-30T08:54:53;22.00;75.20
11836;DHT22;5977;51.972;7.640;2022-10-30T08:57:23;21.90;74.00
11836;DHT22;5977;51.972;7.640;2022-10-30T08:59:54;21.60;74.50
11836;DHT22;5977;51.972;7.640;2022-10-30T09:02:41;21.40;73.90
11836;DHT22;5977;51.972;7.640;2022-10-30T09:05:29;21.30;74.80
11836;DHT22;5977;51.972;7.640;2022-10-30T09:08:42;21.30;75.10
11836;DHT22;5977;51.972;7.640;2022-10-30T09:11:14;21.30;76.20
11836;DHT22;5977;51.972;7.640;2022-10-30T09:13:43;21.20;75.30
11836;DHT22;5977;51.972;7.640;2022-10-30T09:16:11;21.40;77.10
11836;DHT22;5977;51.972;7.640;2022-10-30T09:18:40;21.70;78.80
11836;DHT22;5977;51.972;7.640;2022-10-30T09:21:08;21.60;75.30
11836;DHT22;5977;51.972;7.640;2022-10-30T09:23:45;21.50;76.30
11836;DHT22;5977;51.972;7.640;2022-10-30T09:26:42;21.30;75.20
11836;DHT22;5977;51.972;7.640;2022-10-30T09:29:30;21.20;75.40
11836;DHT22;5977;51.972;7.640;2022-10-30T09:32:08;21.10;75.60
11836;DHT22;5977;51.972;7.640;2022-10-30T09:34:47;21.20;76.80
11836;DHT22;5977;51.972;7.640;2022-10-30T09:37:22;21.40;78.50
11836;DHT22;5977;51.972;7.640;2022-10-30T09:39:55;21.50;77.90
11836;DHT22;5977;51.972;7.640;2022-10-30T09:42:43;21.60;77.60
11836;DHT22;5977;51.972;7.640;2022-10-30T09:48:30;21.70;77.50
11836;DHT22;5977;51.972;7.640;2022-10-30T09:51:14;21.80;77.50
11836;DHT22;5977;51.972;7.640;2022-10-30T09:53:55;21.80;77.10
11836;DHT22;5977;51.972;7.640;2022-10-30T09:56:37;21.80;77.30
11836;DHT22;5977;51.972;7.640;2022-10-30T09:59:11;21.90;77.40
11836;DHT22;5977;51.972;7.640;2022-10-30T10:01:47;22.10;77.40
11836;DHT22;5977;51.972;7.640;2022-10-30T10:04:22;22.00;76.60
11836;DHT22;5977;51.972;7.640;2022-10-30T10:07:17;22.00;75.50
11836;DHT22;5977;51.972;7.640;2022-10-30T10:10:08;21.90;75.90
11836;DHT22;5977;51.972;7.640;2022-10-30T10:12:49;22.10;76.70
11836;DHT22;5977;51.972;7.640;2022-10-30T10:15:33;22.30;75.90
11836;DHT22;5977;51.972;7.640;2022-10-30T10:18:09;22.30;75.30
11836;DHT22;5977;51.972;7.640;2022-10-30T10:20:43;22.30;74.90
11836;DHT22;5977;51.972;7.640;2022-10-30T10:23:17;22.40;74.40
11836;DHT22;5977;51.972;7.640;2022-10-30T10:25:51;22.50;74.30
11836;DHT22;5977;51.972;7.640;2022-10-30T10:28:41;22.50;74.50
11836;DHT22;5977;51.972;7.640;2022-10-30T10:31:25;22.70;73.90
11836;DHT22;5977;51.972;7.640;2022-10-30T10:34:16;22.80;72.90
11836;DHT22;5977;51.972;7.640;2022-10-30T10:36:51;22.90;73.20
11836;DHT22;5977;51.972;7.640;2022-10-30T10:39:34;23.00;72.90
11836;DHT22;5977;51.972;7.640;2022-10-30T10:42:15;22.90;72.90
11836;DHT22;5977;51.972;7.640;2022-10-30T10:45:05;22.80;73.50
11836;DHT22;5977;51.972;7.640;2022-10-30T10:47:51;22.90;73.10
11836;DHT22;5977;51.972;7.640;2022-10-30T10:50:27;22.80;73.00
11836;DHT22;5977;51.972;7.640;2022-10-30T10:52:58;22.70;73.30
11836;DHT22;5977;51.972;7.640;2022-10-30T10:55:31;22.80;73.60
11836;DHT22;5977;51.972;7.640;2022-10-30T10:58:09;22.80;73.60
11836;DHT22;5977;51.972;7.640;2022-10-30T11:00:42;22.90;74.80
11836;DHT22;5977;51.972;7.640;2022-10-30T11:03:14;23.00;74.40
11836;DHT22;5977;51.972;7.640;2022-10-30T11:05:50;23.00;74.70
11836;DHT22;5977;51.972;7.640;2022-10-30T11:08:22;22.70;72.90
11836;DHT22;5977;51.972;7.640;2022-10-30T11:10:56;22.40;73.50
11836;DHT22;5977;51.972;7.640;2022-10-30T11:13:27;22.20;74.60
11836;DHT22;5977;51.972;7.640;2022-10-30T11:16:01;22.00;75.20
11836;DHT22;5977;51.972;7.640;2022-10-30T11:18:31;22.00;75.90
11836;DHT22;5977;51.972;7.640;2022-10-30T11:21:03;22.00;76.30
11836;DHT22;5977;51.972;7.640;2022-10-30T11:23:36;21.90;76.20
11836;DHT22;5977;51.972;7.640;2022-10-30T11:29:12;21.80;77.00
11836;DHT22;5977;51.972;7.640;2022-10-30T11:31:43;21.70;77.20
11836;DHT22;5977;51.972;7.640;2022-10-30T11:34:31;21.80;78.10
11836;DHT22;5977;51.972;7.640;2022-10-30T11:36:59;22.20;78.20
11836;DHT22;5977;51.972;7.640;2022-10-30T11:39:28;22.50;78.30
11836;DHT22;5977;51.972;7.640;2022-10-30T11:42:02;22.60;78.20
11836;DHT22;5977;51.972;7.640;2022-10-30T11:44:34;22.70;77.60
11836;DHT22;5977;51.972;7.640;2022-10-30T11:47:04;22.70;77.40
11836;DHT22;5977;51.972;7.640;2022-10-30T11:49:38;22.80;77.60
11836;DHT22;5977;51.972;7.640;2022-10-30T11:52:09;22.80;77.30
11836;DHT22;5977;51.972;7.640;2022-10-30T11:54:40;22.80;77.50
11836;DHT22;5977;51.972;7.640;2022-10-30T11:57:18;22.80;77.30
11836;DHT22;5977;51.972;7.640;2022-10-30T11:59:48;22.80;77.20
11836;DHT22;5977;51.972;7.640;2022-10-30T12:02:21;22.80;76.70
11836;DHT22;5977;51.972;7.640;2022-10-30T12:04:49;22.80;76.60
11836;DHT22;5977;51.972;7.640;2022-10-30T12:07:23;22.80;76.70
11836;DHT22;5977;51.972;7.640;2022-10-30T12:09:51;22.80;77.30
11836;DHT22;5977;51.972;7.640;2022-10-30T12:12:22;22.90;77.60
11836;DHT22;5977;51.972;7.640;2022-10-30T12:14:51;22.90;76.80
11836;DHT22;5977;51.972;7.640;2022-10-30T12:17:21;22.90;77.00
11836;DHT22;5977;51.972;7.640;2022-10-30T12:19:51;22.90;77.10
11836;DHT22;5977;51.972;7.640;2022-10-30T12:22:30;23.00;77.20
11836;DHT22;5977;51.972;7.640;2022-10-30T12:24:59;23.00;76.20
11836;DHT22;5977;51.972;7.640;2022-10-30T12:27:29;23.00;77.00
11836;DHT22;5977;51.972;7.640;2022-10-30T12:30:04;23.00;76.80
11836;DHT22;5977;51.972;7.640;2022-10-30T12:32:42;23.00;76.90
11836;DHT22;5977;51.972;7.640;2022-10-30T12:35:34;23.00;77.00
11836;DHT22;5977;51.972;7.640;2022-10-30T12:38:05;23.00;77.20
11836;DHT22;5977;51.972;7.640;2022-10-30T12:40:41;23.00;77.30
11836;DHT22;5977;51.972;7.640;2022-10-30T12:43:16;23.10;77.00
11836;DHT22;5977;51.972;7.640;2022-10-30T12:45:47;23.10;77.10
11836;DHT22;5977;51.972;7.640;2022-10-30T12:48:24;23.10;76.60
11836;DHT22;5977;51.972;7.640;2022-10-30T12:51:01;23.10;76.40
11836;DHT22;5977;51.972;7.640;2022-10-30T12:53:37;23.10;76.60
11836;DHT22;5977;51.972;7.640;2022-10-30T12:56:08;23.20;76.40
11836;DHT22;5977;51.972;7.640;2022-10-30T12:58:42;23.20;75.90
11836;DHT22;5977;51.972;7.640;2022-10-30T13:01:16;23.20;75.70
11836;DHT22;5977;51.972;7.640;2022-10-30T13:03:54;23.20;75.90
11836;DHT22;5977;51.972;7.640;2022-10-30T13:06:27;23.20;75.80
11836;DHT22;5977;51.972;7.640;2022-10-30T13:09:03;23.30;76.30
11836;DHT22;5977;51.972;7.640;2022-10-30T13:11:40;23.30;76.50
11836;DHT22;5977;51.972;7.640;2022-10-30T13:14:18;23.30;75.80
11836;DHT22;5977;51.972;7.640;2022-10-30T13:16:49;23.20;75.90
11836;DHT22;5977;51.972;7.640;2022-10-30T13:19:18;23.20;76.30
11836;DHT22;5977;51.972;7.640;2022-10-30T13:21:50;23.10;75.60
11836;DHT22;5977;51.972;7.640;2022-10-30T13:24:24;23.10;76.40
11836;DHT22;5977;51.972;7.640;2022-10-30T13:26:56;23.10;76.00
11836;DHT22;5977;51.972;7.640;2022-10-30T13:29:30;23.20;76.40
11836;DHT22;5977;51.972;7.640;2022-10-30T13:32:11;23.20;76.00
11836;DHT22;5977;51.972;7.640;2022-10-30T13:34:47;23.10;76.50
11836;DHT22;5977;51.972;7.640;2022-10-30T13:37:20;23.10;76.10
11836;DHT22;5977;51.972;7.640;2022-10-30T13:40:04;23.10;75.80
11836;DHT22;5977;51.972;7.640;2022-10-30T13:42:46;23.10;75.80
11836;DHT22;5977;51.972;7.640;2022-10-30T13:45:34;23.10;76.20
11836;DHT22;5977;51.972;7.640;2022-10-30T13:48:10;23.10;76.60
11836;DHT22;5977;51.972;7.640;2022-10-30T13:50:55;23.10;76.50
11836;DHT22;5977;51.972;7.640;2022-10-30T13:53:33;23.10;76.80
11836;DHT22;5977;51.972;7.640;2022-10-30T13:56:03;23.20;76.80
11836;DHT22;5977;51.972;7.640;2022-10-30T13:58:34;23.10;76.40
11836;DHT22;5977;51.972;7.640;2022-10-30T14:01:07;23.10;77.30
11836;DHT22;5977;51.972;7.640;2022-10-30T14:03:47;22.90;75.90
11836;DHT22;5977;51.972;7.640;2022-10-30T14:06:30;22.90;77.20
11836;DHT22;5977;51.972;7.640;2022-10-30T14:09:07;23.00;77.20
11836;DHT22;5977;51.972;7.640;2022-10-30T14:11:38;23.00;77.50
11836;DHT22;5977;51.972;7.640;2022-10-30T14:14:27;23.00;77.30
11836;DHT22;5977;51.972;7.640;2022-10-30T14:17:16;23.10;77.60
11836;DHT22;5977;51.972;7.640;2022-10-30T14:20:24;23.10;77.10
11836;DHT22;5977;51.972;7.640;2022-10-30T14:23:07;23.00;77.50
11836;DHT22;5977;51.972;7.640;2022-10-30T14:25:39;23.00;77.90
11836;DHT22;5977;51.972;7.640;2022-10-30T14:28:17;23.00;77.10
11836;DHT22;5977;51.972;7.640;2022-10-30T14:30:45;22.90;77.90
11836;DHT22;5977;51.972;7.640;2022-10-30T14:33:39;23.00;77.90
11836;DHT22;5977;51.972;7.640;2022-10-30T14:36:22;23.00;78.20
11836;DHT22;5977;51.972;7.640;2022-10-30T14:38:54;23.00;77.60
11836;DHT22;5977;51.972;7.640;2022-10-30T14:41:38;23.00;78.00
11836;DHT22;5977;51.972;7.640;2022-10-30T14:44:37;23.00;78.00
11836;DHT22;5977;51.972;7.640;2022-10-30T14:47:31;22.90;78.00
11836;DHT22;5977;51.972;7.640;2022-10-30T14:50:03;22.90;78.20
11836;DHT22;5977;51.972;7.640;2022-10-30T14:52:42;22.80;77.90
11836;DHT22;5977;51.972;7.640;2022-10-30T14:55:34;22.80;78.20
11836;DHT22;5977;51.972;7.640;2022-10-30T14:58:16;22.70;78.10
11836;DHT22;5977;51.972;7.640;2022-10-30T15:00:45;22.70;78.60
11836;DHT22;5977;51.972;7.640;2022-10-30T15:03:17;22.60;78.80
11836;DHT22;5977;51.972;7.640;2022-10-30T15:05:54;22.60;79.10
11836;DHT22;5977;51.972;7.640;2022-10-30T15:08:40;22.70;79.30
11836;DHT22;5977;51.972;7.640;2022-10-30T15:11:24;22.70;79.40
11836;DHT22;5977;51.972;7.640;2022-10-30T15:13:55;22.70;79.40
11836;DHT22;5977;51.972;7.640;2022-10-30T15:16:27;22.70;79.50
11836;DHT22;5977;51.972;7.640;2022-10-30T15:18:58;22.50;80.70
11836;DHT22;5977;51.972;7.640;2022-10-30T15:21:28;22.50;81.30
11836;DHT22;5977;51.972;7.640;2022-10-30T15:23:59;22.50;82.00
11836;DHT22;5977;51.972;7.640;2022-10-30T15:26:33;22.50;82.00
11836;DHT22;5977;51.972;7.640;2022-10-30T15:29:03;22.60;82.10
11836;DHT22;5977;51.972;7.640;2022-10-30T15:31:32;22.50;82.50
11836;DHT22;5977;51.972;7.640;2022-10-30T15:33:59;22.50;82.30
11836;DHT22;5977;51.972;7.640;2022-10-30T15:36:34;22.30;83.20
11836;DHT22;5977;51.972;7.640;2022-10-30T15:39:07;22.30;83.60
11836;DHT22;5977;51.972;7.640;2022-10-30T15:41:41;22.50;83.10
11836;DHT22;5977;51.972;7.640;2022-10-30T15:44:11;22.50;83.30
11836;DHT22;5977;51.972;7.640;2022-10-30T15:46:43;22.30;84.00
11836;DHT22;5977;51.972;7.640;2022-10-30T15:49:15;22.20;84.60
11836;DHT22;5977;51.972;7.640;2022-10-30T15:51:46;22.20;84.50
11836;DHT22;5977;51.972;7.640;2022-10-30T15:54:16;22.20;85.00
11836;DHT22;5977;51.972;7.640;2022-10-30T15:56:49;22.10;85.80
11836;DHT22;5977;51.972;7.640;2022-10-30T15:59:39;22.10;86.30
11836;DHT22;5977;51.972;7.640;2022-10-30T16:02:18;22.10;86.40
11836;DHT22;5977;51.972;7.640;2022-10-30T16:04:47;22.00;85.90
11836;DHT22;5977;51.972;7.640;2022-10-30T16:07:16;21.80;86.60
11836;DHT22;5977;51.972;7.640;2022-10-30T16:09:51;21.70;88.20
11836;DHT22;5977;51.972;7.640;2022-10-30T16:12:23;21.80;88.50
11836;DHT22;5977;51.972;7.640;2022-10-30T16:14:51;21.90;88.00
11836;DHT22;5977;51.972;7.640;2022-10-30T16:17:20;21.90;87.40
11836;DHT22;5977;51.972;7.640;2022-10-30T16:19:50;21.90;88.00
11836;DHT22;5977;51.972;7.640;2022-10-30T16:22:22;22.00;88.50
11836;DHT22;5977;51.972;7.640;2022-10-30T16:24:51;21.90;88.70
11836;DHT22;5977;51.972;7.640;2022-10-30T16:27:22;21.80;88.80
11836;DHT22;5977;51.972;7.640;2022-10-30T16:29:52;21.80;89.60
11836;DHT22;5977;51.972;7.640;2022-10-30T16:32:23;21.90;89.20
11836;DHT22;5977;51.972;7.640;2022-10-30T16:34:55;21.80;89.40
11836;DHT22;5977;51.972;7.640;2022-10-30T16:37:24;21.80;89.60